Time;durP1;ratioP1;P1;durP2;ratioP2;P2;SDS_P1;SDS_P2;PMS_P1;PMS_P2;Temp;Humidity;BMP_temperature;BMP_pressure;BME280_temperature;BME280_humidity;BME280_pressure;Samples;Min_cycle;Max_cycle;Signal;HPM_P1;HPM_P2
2023/12/21 00:00:41;;;;;;;9.25;2.53;;;;;;;;;;6391300;22;20461;-74
2023/12/21 00:03:06;;;;;;;15.75;3.03;;;;;;;;;;6362654;22;20006;-74
2023/12/21 00:05:32;;;;;;;9.63;2.65;;;;;;;;;;6363197;22;20078;-74
2023/12/21 00:07:57;;;;;;;15.73;3.20;;;;;;;;;;6391239;22;20421;-74
2023/12/21 00:10:22;;;;;;;9.60;2.95;;;;;;;;;;6362730;22;20010;-74
2023/12/21 00:12:50;;;;;;;11.68;2.75;;;;;;;;;;6389854;22;20085;-74
2023/12/21 00:15:16;;;;;;;12.93;2.80;;;;;;;;;;6390760;22;20016;-74
2023/12/21 00:17:41;;;;;;;14.52;3.20;;;;;;;;;;6391865;22;20010;-74
2023/12/21 00:20:08;;;;;;;18.77;3.45;;;;;;;;;;6362243;22;20033;-74
2023/12/21 00:22:33;;;;;;;18.13;3.25;;;;;;;;;;6390304;22;20516;-75
2023/12/21 00:24:59;;;;;;;19.88;3.28;;;;;;;;;;6391219;22;20017;-75
2023/12/21 00:27:24;;;;;;;20.00;3.65;;;;;;;;;;6391450;22;20010;-74
2023/12/21 00:29:50;;;;;;;13.02;3.25;;;;;;;;;;6361476;22;20002;-74
2023/12/21 00:32:15;;;;;;;11.02;3.13;;;;;;;;;;6390086;22;19998;-74
2023/12/21 00:34:42;;;;;;;20.20;3.22;;;;;;;;;;6391105;22;20033;-74
2023/12/21 00:37:07;;;;;;;16.52;2.65;;;;;;;;;;6391897;22;20476;-74
2023/12/21 00:39:32;;;;;;;12.13;2.97;;;;;;;;;;6391690;22;20014;-74
2023/12/21 00:41:58;;;;;;;12.18;3.00;;;;;;;;;;6393715;22;20001;-74
2023/12/21 00:44:23;;;;;;;11.23;3.00;;;;;;;;;;6374705;22;20013;-75
2023/12/21 00:46:48;;;;;;;19.52;3.50;;;;;;;;;;6405855;22;20066;-74
2023/12/21 00:49:14;;;;;;;18.25;2.90;;;;;;;;;;6392900;22;20013;-74
2023/12/21 00:51:39;;;;;;;13.25;3.08;;;;;;;;;;6362314;22;20014;-74
2023/12/21 00:54:04;;;;;;;18.05;3.10;;;;;;;;;;6390361;22;20152;-74
2023/12/21 00:56:30;;;;;;;19.25;4.13;;;;;;;;;;6391860;22;20009;-75
2023/12/21 00:58:59;;;;;;;15.73;3.17;;;;;;;;;;6390507;22;20018;-75
2023/12/21 01:01:25;;;;;;;10.85;3.60;;;;;;;;;;6390855;22;20014;-75
2023/12/21 01:03:50;;;;;;;13.27;3.53;;;;;;;;;;6390953;22;20014;-74
2023/12/21 01:06:16;;;;;;;14.18;3.13;;;;;;;;;;6390791;22;20096;-74
2023/12/21 01:08:41;;;;;;;13.68;3.38;;;;;;;;;;6391418;22;19994;-74
2023/12/21 01:11:06;;;;;;;15.52;3.25;;;;;;;;;;6390452;22;20014;-74
2023/12/21 01:13:33;;;;;;;15.07;3.33;;;;;;;;;;6362973;22;20018;-74
2023/12/21 01:15:59;;;;;;;17.60;3.22;;;;;;;;;;6361514;22;20010;-74
2023/12/21 01:18:24;;;;;;;11.32;3.65;;;;;;;;;;6360924;22;20020;-74
2023/12/21 01:20:49;;;;;;;18.85;3.45;;;;;;;;;;6391124;22;20081;-74
2023/12/21 01:23:16;;;;;;;19.92;5.15;;;;;;;;;;6363123;22;20418;-74
2023/12/21 01:25:41;;;;;;;18.25;3.80;;;;;;;;;;6361711;22;20005;-75
2023/12/21 01:28:07;;;;;;;13.68;3.10;;;;;;;;;;6362176;22;20544;-74
2023/12/21 01:30:32;;;;;;;20.58;3.45;;;;;;;;;;6389600;22;20447;-74
2023/12/21 01:32:58;;;;;;;17.88;4.32;;;;;;;;;;6390221;22;20696;-74
2023/12/21 01:35:23;;;;;;;19.00;3.40;;;;;;;;;;6391077;22;20664;-74
2023/12/21 01:37:48;;;;;;;12.32;2.40;;;;;;;;;;6390242;22;20022;-74
2023/12/21 01:40:15;;;;;;;9.88;2.65;;;;;;;;;;6390624;22;20030;-74
2023/12/21 01:42:40;;;;;;;13.88;3.45;;;;;;;;;;6389716;22;20461;-75
2023/12/21 01:45:06;;;;;;;14.65;4.00;;;;;;;;;;6390432;22;20058;-74
2023/12/21 01:47:32;;;;;;;15.88;3.53;;;;;;;;;;6391115;22;20456;-74
2023/12/21 01:49:57;;;;;;;15.90;3.03;;;;;;;;;;6361359;22;20005;-74
2023/12/21 01:52:23;;;;;;;18.08;3.17;;;;;;;;;;6361893;22;20065;-74
2023/12/21 01:54:49;;;;;;;16.13;3.33;;;;;;;;;;6390583;22;20033;-74
2023/12/21 01:57:14;;;;;;;15.75;3.72;;;;;;;;;;6390261;22;20056;-75
2023/12/21 01:59:40;;;;;;;16.30;3.88;;;;;;;;;;6391990;22;20028;-74
2023/12/21 02:02:06;;;;;;;11.80;3.75;;;;;;;;;;6394059;22;20501;-74
2023/12/21 02:04:31;;;;;;;17.45;2.35;;;;;;;;;;6406346;22;20038;-75
2023/12/21 02:06:57;;;;;;;17.85;3.20;;;;;;;;;;6383237;22;20020;-74
2023/12/21 02:09:22;;;;;;;14.00;3.45;;;;;;;;;;6395735;22;20017;-74
2023/12/21 02:11:48;;;;;;;19.05;3.28;;;;;;;;;;6391862;22;20005;-74
2023/12/21 02:14:13;;;;;;;14.40;2.97;;;;;;;;;;6390906;22;19990;-74
2023/12/21 02:16:48;;;;;;;13.27;2.90;;;;;;;;;;6390027;22;20024;-74
2023/12/21 02:19:13;;;;;;;12.85;3.10;;;;;;;;;;6389905;22;20017;-75
2023/12/21 02:21:41;;;;;;;16.35;3.17;;;;;;;;;;6390132;22;20010;-74
2023/12/21 02:24:14;;;;;;;16.60;3.63;;;;;;;;;;6389912;22;20040;-74
2023/12/21 02:26:41;;;;;;;12.43;3.00;;;;;;;;;;6390718;22;20017;-74
2023/12/21 02:29:06;;;;;;;16.15;3.85;;;;;;;;;;6361587;22;20014;-75
2023/12/21 02:31:32;;;;;;;16.92;3.63;;;;;;;;;;6390090;22;20021;-74
2023/12/21 02:33:57;;;;;;;20.20;4.22;;;;;;;;;;6389328;22;20010;-75
2023/12/21 02:36:22;;;;;;;18.25;3.40;;;;;;;;;;6389754;22;20104;-75
2023/12/21 02:38:48;;;;;;;23.15;3.38;;;;;;;;;;6390057;22;20006;-75
2023/12/21 02:41:13;;;;;;;20.55;4.07;;;;;;;;;;6361642;22;20004;-74
2023/12/21 02:43:38;;;;;;;17.83;3.25;;;;;;;;;;6390263;22;20033;-74
2023/12/21 02:46:04;;;;;;;15.70;3.70;;;;;;;;;;6361575;22;20693;-74
2023/12/21 02:48:30;;;;;;;17.20;3.97;;;;;;;;;;6389808;22;20093;-74
2023/12/21 02:50:56;;;;;;;12.07;3.17;;;;;;;;;;6389248;22;19998;-74
2023/12/21 02:53:21;;;;;;;20.58;3.17;;;;;;;;;;6390433;22;20002;-74
2023/12/21 02:55:46;;;;;;;15.27;3.70;;;;;;;;;;6389460;22;20043;-74
2023/12/21 02:58:12;;;;;;;17.48;3.90;;;;;;;;;;6389250;22;20026;-74
2023/12/21 03:00:37;;;;;;;16.55;3.17;;;;;;;;;;6390076;22;20144;-74
2023/12/21 03:03:03;;;;;;;14.05;4.10;;;;;;;;;;6360810;22;20002;-74
2023/12/21 03:05:28;;;;;;;24.58;3.53;;;;;;;;;;6390636;22;19994;-75
2023/12/21 03:07:54;;;;;;;12.20;3.25;;;;;;;;;;6361295;22;20002;-74
2023/12/21 03:10:20;;;;;;;19.55;4.35;;;;;;;;;;6389068;22;20009;-74
2023/12/21 03:12:45;;;;;;;14.32;3.53;;;;;;;;;;6389053;22;20014;-74
2023/12/21 03:15:11;;;;;;;31.33;4.10;;;;;;;;;;6389708;22;20010;-74
2023/12/21 03:17:36;;;;;;;19.45;4.32;;;;;;;;;;6390550;22;20021;-74
2023/12/21 03:20:03;;;;;;;17.48;3.25;;;;;;;;;;6390013;22;20020;-75
2023/12/21 03:22:28;;;;;;;21.88;3.35;;;;;;;;;;6396151;22;20014;-74
2023/12/21 03:24:54;;;;;;;14.98;4.20;;;;;;;;;;6405327;22;20102;-74
2023/12/21 03:27:19;;;;;;;14.43;3.50;;;;;;;;;;6397346;22;20010;-74
2023/12/21 03:29:45;;;;;;;13.10;2.70;;;;;;;;;;6363390;22;20006;-74
2023/12/21 03:32:11;;;;;;;18.98;3.67;;;;;;;;;;6391616;22;20017;-74
2023/12/21 03:34:36;;;;;;;19.77;4.18;;;;;;;;;;6362465;22;20012;-74
2023/12/21 03:37:02;;;;;;;18.48;3.35;;;;;;;;;;6363573;22;20022;-74
2023/12/21 03:39:27;;;;;;;20.80;3.58;;;;;;;;;;6392041;22;20804;-74
2023/12/21 03:41:52;;;;;;;17.20;3.38;;;;;;;;;;6391691;22;20002;-74
2023/12/21 03:44:18;;;;;;;17.13;3.72;;;;;;;;;;6364157;22;20425;-74
2023/12/21 03:46:43;;;;;;;16.58;4.53;;;;;;;;;;6361572;22;20010;-74
2023/12/21 03:49:08;;;;;;;19.38;3.20;;;;;;;;;;6391660;22;20481;-74
2023/12/21 03:51:34;;;;;;;27.88;4.22;;;;;;;;;;6392353;22;20093;-74
2023/12/21 03:53:59;;;;;;;21.73;4.45;;;;;;;;;;6363089;22;20404;-74
2023/12/21 03:56:24;;;;;;;16.33;2.92;;;;;;;;;;6363620;22;19998;-74
2023/12/21 03:58:50;;;;;;;10.70;2.60;;;;;;;;;;6391532;22;20013;-74
2023/12/21 04:01:23;;;;;;;22.08;3.40;;;;;;;;;;6389120;22;20017;-75
2023/12/21 04:03:48;;;;;;;21.38;3.88;;;;;;;;;;6391097;22;20010;-75
2023/12/21 04:06:14;;;;;;;18.40;3.38;;;;;;;;;;6363484;22;20670;-74
2023/12/21 04:08:39;;;;;;;16.92;3.28;;;;;;;;;;6391773;22;20016;-74
2023/12/21 04:11:04;;;;;;;22.70;4.60;;;;;;;;;;6391316;22;20096;-74
2023/12/21 04:13:30;;;;;;;18.10;4.40;;;;;;;;;;6391728;22;20037;-74
2023/12/21 04:15:55;;;;;;;14.00;2.55;;;;;;;;;;6362839;22;20066;-74
2023/12/21 04:18:20;;;;;;;17.67;3.42;;;;;;;;;;6362806;22;20447;-74
2023/12/21 04:20:46;;;;;;;13.80;2.80;;;;;;;;;;6363790;22;20001;-74
2023/12/21 04:23:11;;;;;;;17.67;3.13;;;;;;;;;;6362911;22;20080;-74
2023/12/21 04:25:37;;;;;;;12.65;3.17;;;;;;;;;;6363320;22;20515;-74
2023/12/21 04:28:02;;;;;;;17.27;3.13;;;;;;;;;;6362709;22;20105;-74
2023/12/21 04:30:28;;;;;;;14.65;2.78;;;;;;;;;;6391154;22;20017;-74
2023/12/21 04:32:53;;;;;;;18.67;4.25;;;;;;;;;;6391300;22;20384;-74
2023/12/21 04:35:19;;;;;;;18.40;3.65;;;;;;;;;;6363313;22;20066;-74
2023/12/21 04:37:44;;;;;;;12.00;3.45;;;;;;;;;;6392111;22;20014;-74
2023/12/21 04:40:10;;;;;;;13.68;2.75;;;;;;;;;;6364221;22;20081;-74
2023/12/21 04:42:35;;;;;;;13.48;2.95;;;;;;;;;;6373857;22;20018;-74
2023/12/21 04:45:01;;;;;;;15.88;3.05;;;;;;;;;;6412305;22;20038;-74
2023/12/21 04:47:27;;;;;;;12.85;2.92;;;;;;;;;;6402995;22;20394;-74
2023/12/21 04:49:52;;;;;;;16.05;3.10;;;;;;;;;;6365958;22;20033;-74
2023/12/21 04:52:17;;;;;;;19.13;3.70;;;;;;;;;;6392445;22;20021;-74
2023/12/21 04:54:43;;;;;;;16.77;3.40;;;;;;;;;;6392146;22;20052;-74
2023/12/21 04:57:08;;;;;;;16.80;3.00;;;;;;;;;;6390521;22;20018;-74
2023/12/21 04:59:33;;;;;;;14.52;3.75;;;;;;;;;;6391750;22;20481;-74
2023/12/21 05:01:59;;;;;;;20.05;2.85;;;;;;;;;;6391408;22;20009;-74
2023/12/21 05:04:24;;;;;;;16.17;2.85;;;;;;;;;;6363127;22;20109;-74
2023/12/21 05:06:50;;;;;;;20.23;3.58;;;;;;;;;;6390247;22;20094;-74
2023/12/21 05:09:15;;;;;;;14.18;3.47;;;;;;;;;;6391141;22;20098;-74
2023/12/21 05:11:40;;;;;;;18.25;3.17;;;;;;;;;;6391061;22;19994;-74
2023/12/21 05:14:06;;;;;;;15.00;2.65;;;;;;;;;;6390994;22;20014;-75
2023/12/21 05:16:31;;;;;;;13.75;2.50;;;;;;;;;;6391437;22;20010;-74
2023/12/21 05:18:56;;;;;;;12.30;2.40;;;;;;;;;;6390302;22;20009;-74
2023/12/21 05:21:22;;;;;;;17.95;3.40;;;;;;;;;;6391142;22;20066;-74
2023/12/21 05:23:47;;;;;;;12.40;2.92;;;;;;;;;;6362092;22;20026;-74
2023/12/21 05:26:14;;;;;;;15.18;3.00;;;;;;;;;;6391256;22;20025;-74
2023/12/21 05:28:41;;;;;;;7.88;2.38;;;;;;;;;;6362340;22;20026;-74
2023/12/21 05:31:08;;;;;;;11.07;2.50;;;;;;;;;;6362323;22;20016;-74
2023/12/21 05:33:33;;;;;;;18.25;3.40;;;;;;;;;;6390376;22;20247;-74
2023/12/21 05:35:58;;;;;;;14.20;3.05;;;;;;;;;;6362039;22;20039;-74
2023/12/21 05:38:24;;;;;;;13.77;2.92;;;;;;;;;;6391822;22;20001;-74
2023/12/21 05:40:49;;;;;;;17.52;3.38;;;;;;;;;;6388335;22;20018;-75
2023/12/21 05:43:15;;;;;;;13.48;3.72;;;;;;;;;;6390037;22;20017;-74
2023/12/21 05:45:40;;;;;;;11.25;2.85;;;;;;;;;;6390831;22;20081;-74
2023/12/21 05:48:06;;;;;;;13.02;3.22;;;;;;;;;;6389217;22;20322;-74
2023/12/21 05:50:31;;;;;;;16.33;3.03;;;;;;;;;;6391800;22;20345;-74
2023/12/21 05:52:56;;;;;;;13.85;2.30;;;;;;;;;;6389078;22;20404;-74
2023/12/21 05:55:22;;;;;;;11.55;2.42;;;;;;;;;;6391279;22;20516;-74
2023/12/21 05:57:47;;;;;;;10.60;2.97;;;;;;;;;;6391760;22;20018;-74
2023/12/21 06:00:13;;;;;;;17.92;2.70;;;;;;;;;;6364961;22;20006;-74
2023/12/21 06:02:38;;;;;;;13.05;2.13;;;;;;;;;;6404172;22;20027;-73
2023/12/21 06:05:04;;;;;;;14.55;2.38;;;;;;;;;;6405466;22;20026;-74
2023/12/21 06:07:30;;;;;;;15.95;3.22;;;;;;;;;;6390585;22;20018;-74
2023/12/21 06:09:55;;;;;;;15.55;2.28;;;;;;;;;;6362789;22;20006;-74
2023/12/21 06:12:21;;;;;;;12.52;2.47;;;;;;;;;;6390252;22;20021;-74
2023/12/21 06:14:47;;;;;;;8.73;2.05;;;;;;;;;;6390737;22;20001;-74
2023/12/21 06:17:14;;;;;;;12.38;2.40;;;;;;;;;;6391692;22;20345;-74
2023/12/21 06:19:42;;;;;;;15.48;2.53;;;;;;;;;;6389914;22;20014;-74
2023/12/21 06:22:08;;;;;;;8.32;2.53;;;;;;;;;;6387019;22;20326;-74
2023/12/21 06:24:33;;;;;;;16.20;3.88;;;;;;;;;;6360918;22;20465;-74
2023/12/21 06:26:59;;;;;;;12.13;2.25;;;;;;;;;;6390092;22;19994;-74
2023/12/21 06:29:24;;;;;;;10.80;2.97;;;;;;;;;;6390292;22;20064;-74
2023/12/21 06:31:49;;;;;;;12.25;2.58;;;;;;;;;;6389684;22;20498;-74
2023/12/21 06:34:15;;;;;;;8.93;2.38;;;;;;;;;;6390258;22;20364;-74
2023/12/21 06:36:40;;;;;;;13.90;2.83;;;;;;;;;;6390892;22;20010;-74
2023/12/21 06:39:05;;;;;;;9.82;2.25;;;;;;;;;;6389510;22;19998;-74
2023/12/21 06:41:31;;;;;;;9.55;2.13;;;;;;;;;;6390584;22;19994;-74
2023/12/21 06:43:56;;;;;;;9.93;1.77;;;;;;;;;;6390412;22;20546;-74
2023/12/21 06:46:21;;;;;;;10.07;2.58;;;;;;;;;;6389242;22;20029;-74
2023/12/21 06:48:47;;;;;;;13.70;2.55;;;;;;;;;;6359094;22;20020;-74
2023/12/21 06:51:13;;;;;;;15.65;2.30;;;;;;;;;;6360237;22;20081;-74
2023/12/21 06:53:39;;;;;;;7.80;2.47;;;;;;;;;;6362145;22;20357;-74
2023/12/21 06:56:05;;;;;;;10.30;1.80;;;;;;;;;;6390578;22;20770;-74
2023/12/21 06:58:30;;;;;;;9.82;2.75;;;;;;;;;;6354072;22;20022;-74
2023/12/21 07:00:56;;;;;;;10.02;2.05;;;;;;;;;;6383813;22;20017;-74
2023/12/21 07:03:24;;;;;;;7.82;2.22;;;;;;;;;;6360464;22;20005;-75
2023/12/21 07:05:52;;;;;;;7.80;2.15;;;;;;;;;;6389492;22;20041;-76
2023/12/21 07:08:18;;;;;;;10.55;2.50;;;;;;;;;;6388944;22;19990;-75
2023/12/21 07:10:44;;;;;;;5.47;1.40;;;;;;;;;;6360985;22;20569;-75
2023/12/21 07:13:10;;;;;;;13.57;1.90;;;;;;;;;;6388921;22;20013;-76
2023/12/21 07:15:35;;;;;;;4.75;1.73;;;;;;;;;;6389501;22;20089;-75
2023/12/21 07:18:01;;;;;;;5.03;1.40;;;;;;;;;;6391678;22;20041;-75
2023/12/21 07:20:28;;;;;;;13.77;2.00;;;;;;;;;;6397465;22;20515;-75
2023/12/21 07:22:53;;;;;;;5.63;1.20;;;;;;;;;;6407101;22;20084;-75
2023/12/21 07:25:19;;;;;;;6.13;1.52;;;;;;;;;;6406104;22;20010;-75
2023/12/21 07:27:44;;;;;;;6.25;1.48;;;;;;;;;;6393547;22;20009;-75
2023/12/21 07:30:10;;;;;;;9.93;1.83;;;;;;;;;;6362138;22;20055;-75
2023/12/21 07:32:36;;;;;;;5.38;1.70;;;;;;;;;;6390030;22;20009;-75
2023/12/21 07:35:01;;;;;;;8.90;1.70;;;;;;;;;;6390610;22;20334;-75
2023/12/21 07:37:26;;;;;;;5.88;1.58;;;;;;;;;;6390352;22;20022;-75
2023/12/21 07:39:52;;;;;;;5.13;1.52;;;;;;;;;;6362180;22;20416;-75
2023/12/21 07:42:17;;;;;;;6.43;1.40;;;;;;;;;;6386361;22;20025;-75
2023/12/21 07:44:43;;;;;;;8.82;1.75;;;;;;;;;;6388514;22;19993;-75
2023/12/21 07:47:09;;;;;;;4.97;1.48;;;;;;;;;;6387654;22;20006;-75
2023/12/21 07:49:35;;;;;;;5.05;1.67;;;;;;;;;;6387434;22;20010;-75
2023/12/21 07:52:00;;;;;;;8.38;1.98;;;;;;;;;;6383921;22;20483;-75
2023/12/21 07:54:26;;;;;;;8.55;1.60;;;;;;;;;;6386555;22;20037;-75
2023/12/21 07:56:51;;;;;;;7.40;2.00;;;;;;;;;;6386695;22;19998;-74
2023/12/21 07:59:18;;;;;;;5.70;1.52;;;;;;;;;;6359376;22;20035;-75
2023/12/21 08:01:43;;;;;;;4.72;1.60;;;;;;;;;;6385505;22;20021;-75
2023/12/21 08:04:09;;;;;;;9.27;1.67;;;;;;;;;;6385111;22;20010;-75
2023/12/21 08:06:35;;;;;;;7.00;1.67;;;;;;;;;;6387157;22;20051;-75
2023/12/21 08:09:00;;;;;;;8.25;1.38;;;;;;;;;;6359223;22;20010;-75
2023/12/21 08:11:26;;;;;;;4.35;1.40;;;;;;;;;;6387014;22;20002;-75
2023/12/21 08:13:51;;;;;;;5.22;1.60;;;;;;;;;;6386321;22;20024;-75
2023/12/21 08:16:17;;;;;;;8.38;2.53;;;;;;;;;;6386981;22;20017;-75
2023/12/21 08:18:44;;;;;;;6.45;1.88;;;;;;;;;;6390520;22;20459;-75
2023/12/21 08:21:10;;;;;;;9.82;2.10;;;;;;;;;;6385619;22;20002;-75
2023/12/21 08:23:35;;;;;;;7.28;1.40;;;;;;;;;;6390055;22;20333;-75
2023/12/21 08:26:00;;;;;;;7.47;2.20;;;;;;;;;;6391251;22;20014;-75
2023/12/21 08:28:29;;;;;;;8.43;2.20;;;;;;;;;;6391444;22;20584;-75
2023/12/21 08:30:54;;;;;;;5.03;1.83;;;;;;;;;;6391034;22;20071;-75
2023/12/21 08:33:20;;;;;;;9.77;1.80;;;;;;;;;;6361648;22;20010;-75
2023/12/21 08:35:45;;;;;;;8.77;2.25;;;;;;;;;;6393010;22;20004;-75
2023/12/21 08:38:11;;;;;;;7.43;2.03;;;;;;;;;;6366462;22;20045;-75
2023/12/21 08:40:36;;;;;;;8.25;2.28;;;;;;;;;;6373449;22;20014;-75
2023/12/21 08:43:02;;;;;;;7.28;1.92;;;;;;;;;;6404817;22;20010;-75
2023/12/21 08:45:27;;;;;;;6.22;1.80;;;;;;;;;;6362419;22;20044;-74
2023/12/21 08:47:54;;;;;;;5.80;1.90;;;;;;;;;;6388771;22;20537;-74
2023/12/21 08:50:19;;;;;;;7.43;2.00;;;;;;;;;;6389545;22;19997;-75
2023/12/21 08:52:45;;;;;;;7.68;2.25;;;;;;;;;;6390737;22;20010;-74
2023/12/21 08:55:11;;;;;;;5.80;2.00;;;;;;;;;;6355913;22;20025;-74
2023/12/21 08:57:37;;;;;;;7.50;2.00;;;;;;;;;;6357970;22;20063;-74
2023/12/21 09:00:10;;;;;;;9.07;1.77;;;;;;;;;;6392541;22;20002;-75
2023/12/21 09:02:37;;;;;;;8.10;2.50;;;;;;;;;;6392966;22;20009;-75
2023/12/21 09:05:03;;;;;;;5.18;1.80;;;;;;;;;;6357522;22;20169;-74
2023/12/21 09:07:29;;;;;;;6.85;1.83;;;;;;;;;;6390394;22;20369;-75
2023/12/21 09:09:54;;;;;;;6.00;1.95;;;;;;;;;;6362040;22;20414;-75
2023/12/21 09:12:19;;;;;;;5.72;1.73;;;;;;;;;;6362238;22;20005;-75
2023/12/21 09:14:45;;;;;;;5.38;1.70;;;;;;;;;;6362855;22;19997;-74
2023/12/21 09:17:11;;;;;;;5.78;1.60;;;;;;;;;;6390581;22;20017;-74
2023/12/21 09:19:36;;;;;;;5.65;1.63;;;;;;;;;;6390497;22;20014;-73
2023/12/21 09:22:02;;;;;;;7.50;2.80;;;;;;;;;;6361830;22;20025;-73
2023/12/21 09:24:27;;;;;;;7.75;2.13;;;;;;;;;;6362364;22;20055;-73
2023/12/21 09:26:52;;;;;;;7.53;1.83;;;;;;;;;;6390281;22;20574;-73
2023/12/21 09:29:18;;;;;;;9.60;2.67;;;;;;;;;;6362403;22;20345;-73
2023/12/21 09:31:43;;;;;;;5.75;1.92;;;;;;;;;;6391132;22;20139;-73
2023/12/21 09:34:09;;;;;;;7.85;1.67;;;;;;;;;;6389555;22;20009;-73
2023/12/21 09:36:34;;;;;;;7.75;2.03;;;;;;;;;;6362989;22;20017;-73
2023/12/21 09:39:00;;;;;;;8.25;2.00;;;;;;;;;;6390234;22;20055;-73
2023/12/21 09:41:25;;;;;;;9.65;2.33;;;;;;;;;;6391454;22;20471;-73
2023/12/21 09:43:52;;;;;;;6.72;2.22;;;;;;;;;;6362100;22;20013;-73
2023/12/21 09:46:20;;;;;;;7.15;1.90;;;;;;;;;;6360063;22;20013;-73
2023/12/21 09:48:47;;;;;;;8.38;2.13;;;;;;;;;;6361950;22;20010;-73
2023/12/21 09:51:15;;;;;;;8.80;1.92;;;;;;;;;;6390825;22;20461;-73
2023/12/21 09:53:41;;;;;;;5.88;1.73;;;;;;;;;;6391841;22;19998;-74
2023/12/21 09:56:07;;;;;;;5.65;1.80;;;;;;;;;;6392355;22;20016;-73
2023/12/21 09:58:35;;;;;;;3.83;1.52;;;;;;;;;;6398768;22;20042;-73
2023/12/21 10:01:00;;;;;;;6.57;2.35;;;;;;;;;;6380591;22;20039;-73
2023/12/21 10:03:26;;;;;;;5.05;1.77;;;;;;;;;;6404844;22;20002;-73
2023/12/21 10:05:51;;;;;;;6.93;2.17;;;;;;;;;;6364763;22;20020;-73
2023/12/21 10:08:18;;;;;;;7.53;1.77;;;;;;;;;;6363601;22;19990;-73
2023/12/21 10:10:44;;;;;;;6.10;1.58;;;;;;;;;;6391228;22;20047;-73
2023/12/21 10:13:10;;;;;;;5.43;1.45;;;;;;;;;;6391111;22;20101;-73
2023/12/21 10:15:35;;;;;;;8.73;1.83;;;;;;;;;;6361945;22;20504;-73
2023/12/21 10:18:01;;;;;;;8.70;2.22;;;;;;;;;;6362065;22;20086;-73
2023/12/21 10:20:26;;;;;;;8.88;1.80;;;;;;;;;;6390582;22;20005;-74
2023/12/21 10:22:52;;;;;;;6.45;1.73;;;;;;;;;;6389212;22;20013;-74
2023/12/21 10:25:18;;;;;;;5.15;1.75;;;;;;;;;;6390715;22;20533;-74
2023/12/21 10:27:55;;;;;;;6.82;1.92;;;;;;;;;;6360899;22;20014;-73
2023/12/21 10:30:25;;;;;;;4.35;1.33;;;;;;;;;;6389190;22;20010;-73
2023/12/21 10:32:55;;;;;;;4.80;1.50;;;;;;;;;;6361636;22;20002;-73
2023/12/21 10:35:22;;;;;;;3.85;1.40;;;;;;;;;;6387998;22;19997;-75
2023/12/21 10:37:48;;;;;;;6.78;1.65;;;;;;;;;;6389395;22;20491;-75
2023/12/21 10:40:14;;;;;;;10.27;1.80;;;;;;;;;;6361744;22;20009;-75
2023/12/21 10:42:47;;;;;;;5.65;1.60;;;;;;;;;;6389771;22;20009;-75
2023/12/21 10:45:15;;;;;;;6.28;2.05;;;;;;;;;;6389979;22;20006;-75
2023/12/21 10:47:47;;;;;;;5.80;1.90;;;;;;;;;;6390792;22;20472;-76
2023/12/21 10:50:15;;;;;;;8.52;1.75;;;;;;;;;;6361462;22;20045;-76
2023/12/21 10:52:43;;;;;;;3.45;1.50;;;;;;;;;;6360933;22;20568;-75
2023/12/21 10:55:10;;;;;;;4.82;1.52;;;;;;;;;;6361672;22;20520;-74
2023/12/21 10:57:41;;;;;;;7.65;1.67;;;;;;;;;;6360616;22;20020;-74
2023/12/21 11:00:18;;;;;;;7.40;1.85;;;;;;;;;;6361289;22;20012;-74
2023/12/21 11:02:45;;;;;;;3.03;1.30;;;;;;;;;;6362183;22;19998;-74
2023/12/21 11:05:11;;;;;;;7.68;1.90;;;;;;;;;;6361566;22;20014;-74
2023/12/21 11:07:37;;;;;;;7.45;1.42;;;;;;;;;;6389216;22;20022;-74
2023/12/21 11:10:05;;;;;;;9.02;1.80;;;;;;;;;;6389529;22;20062;-73
2023/12/21 11:12:30;;;;;;;3.25;1.20;;;;;;;;;;6360946;22;20018;-73
2023/12/21 11:14:56;;;;;;;5.15;2.08;;;;;;;;;;6392579;22;20405;-73
2023/12/21 11:17:22;;;;;;;5.22;1.45;;;;;;;;;;6369004;22;20770;-73
2023/12/21 11:19:49;;;;;;;7.63;1.40;;;;;;;;;;6402283;22;20139;-74
2023/12/21 11:22:15;;;;;;;8.57;2.50;;;;;;;;;;6398451;22;20094;-74
2023/12/21 11:24:40;;;;;;;5.85;1.38;;;;;;;;;;6388874;22;20021;-73
2023/12/21 11:27:07;;;;;;;4.72;1.58;;;;;;;;;;6389628;22;19994;-74
2023/12/21 11:29:33;;;;;;;5.32;1.30;;;;;;;;;;6361022;22;20238;-74
2023/12/21 11:32:00;;;;;;;5.50;1.25;;;;;;;;;;6389175;22;20067;-74
2023/12/21 11:34:37;;;;;;;5.80;1.67;;;;;;;;;;6388548;22;20407;-74
2023/12/21 11:37:16;;;;;;;8.00;1.30;;;;;;;;;;6390089;22;20105;-73
2023/12/21 11:39:41;;;;;;;7.80;1.67;;;;;;;;;;6361216;22;20097;-74
2023/12/21 11:42:08;;;;;;;4.80;1.38;;;;;;;;;;6389461;22;20496;-76
2023/12/21 11:44:38;;;;;;;5.30;0.80;;;;;;;;;;6385963;22;20010;-74
2023/12/21 11:47:14;;;;;;;5.60;1.85;;;;;;;;;;6387483;22;20030;-75
2023/12/21 11:49:40;;;;;;;4.85;1.45;;;;;;;;;;6360584;22;20029;-75
2023/12/21 11:52:05;;;;;;;4.68;1.30;;;;;;;;;;6390644;22;20014;-74
2023/12/21 11:54:31;;;;;;;4.32;1.42;;;;;;;;;;6392179;22;20086;-75
2023/12/21 11:57:10;;;;;;;6.18;1.40;;;;;;;;;;6391403;22;20069;-75
2023/12/21 11:59:36;;;;;;;8.35;1.73;;;;;;;;;;6391513;22;20484;-74
2023/12/21 12:02:05;;;;;;;5.75;1.40;;;;;;;;;;6362641;22;20006;-74
2023/12/21 12:04:31;;;;;;;7.65;1.38;;;;;;;;;;6388443;22;20492;-75
2023/12/21 12:06:57;;;;;;;5.32;1.55;;;;;;;;;;6391243;22;20023;-75
2023/12/21 12:09:22;;;;;;;5.72;1.50;;;;;;;;;;6363048;22;20009;-74
2023/12/21 12:11:48;;;;;;;4.85;1.42;;;;;;;;;;6391384;22;20005;-75
2023/12/21 12:14:13;;;;;;;6.65;2.03;;;;;;;;;;6364221;22;20006;-73
2023/12/21 12:16:38;;;;;;;6.22;1.60;;;;;;;;;;6361700;22;20051;-73
2023/12/21 12:19:04;;;;;;;6.80;1.60;;;;;;;;;;6361515;22;20026;-73
2023/12/21 12:21:30;;;;;;;7.07;1.50;;;;;;;;;;6391971;22;20086;-72
2023/12/21 12:23:55;;;;;;;9.10;1.52;;;;;;;;;;6390996;22;20025;-73
2023/12/21 12:26:21;;;;;;;7.65;1.70;;;;;;;;;;6392385;22;20005;-73
2023/12/21 12:28:50;;;;;;;6.78;1.58;;;;;;;;;;6363832;22;20068;-73
2023/12/21 12:31:17;;;;;;;6.40;1.52;;;;;;;;;;6363238;22;20021;-72
2023/12/21 12:33:42;;;;;;;7.38;1.52;;;;;;;;;;6392925;22;20224;-72
2023/12/21 12:36:08;;;;;;;6.03;1.67;;;;;;;;;;6396847;22;20388;-73
2023/12/21 12:38:34;;;;;;;5.03;1.20;;;;;;;;;;6380336;22;20010;-73
2023/12/21 12:41:00;;;;;;;6.30;1.45;;;;;;;;;;6382090;22;20017;-73
2023/12/21 12:43:30;;;;;;;7.10;1.70;;;;;;;;;;6396185;22;20010;-73
2023/12/21 12:45:58;;;;;;;7.88;1.40;;;;;;;;;;6393495;22;20018;-73
2023/12/21 12:48:24;;;;;;;5.47;1.40;;;;;;;;;;6393349;22;20010;-73
2023/12/21 12:50:50;;;;;;;3.83;1.42;;;;;;;;;;6391704;22;20078;-73
2023/12/21 12:53:16;;;;;;;13.70;2.80;;;;;;;;;;6392192;22;19997;-73
2023/12/21 12:55:55;;;;;;;8.70;1.50;;;;;;;;;;6361632;22;20017;-73
2023/12/21 12:58:22;;;;;;;4.65;1.52;;;;;;;;;;6360652;22;20022;-73
2023/12/21 13:00:48;;;;;;;7.97;1.90;;;;;;;;;;6362594;22;20382;-74
2023/12/21 13:03:13;;;;;;;6.35;1.30;;;;;;;;;;6359349;22;20012;-73
2023/12/21 13:05:39;;;;;;;7.40;1.80;;;;;;;;;;6389380;22;20017;-73
2023/12/21 13:08:04;;;;;;;6.05;1.48;;;;;;;;;;6389003;22;20014;-73
2023/12/21 13:10:30;;;;;;;3.13;1.02;;;;;;;;;;6358876;22;20014;-73
2023/12/21 13:12:55;;;;;;;3.38;1.30;;;;;;;;;;6389257;22;20006;-73
2023/12/21 13:15:20;;;;;;;3.97;1.20;;;;;;;;;;6361602;22;20006;-74
2023/12/21 13:17:46;;;;;;;4.88;1.25;;;;;;;;;;6390538;22;20433;-73
2023/12/21 13:20:11;;;;;;;4.50;1.30;;;;;;;;;;6390068;22;20033;-74
2023/12/21 13:22:37;;;;;;;4.75;1.30;;;;;;;;;;6361618;22;20016;-74
2023/12/21 13:25:03;;;;;;;4.82;1.30;;;;;;;;;;6373293;22;20010;-74
2023/12/21 13:27:28;;;;;;;4.28;1.10;;;;;;;;;;6360317;22;20075;-73
2023/12/21 13:29:54;;;;;;;7.00;1.35;;;;;;;;;;6389524;22;20028;-74
2023/12/21 13:32:20;;;;;;;8.13;1.88;;;;;;;;;;6389919;22;20005;-73
2023/12/21 13:34:46;;;;;;;8.85;1.42;;;;;;;;;;6388045;22;20643;-74
2023/12/21 13:37:12;;;;;;;8.35;1.83;;;;;;;;;;6390396;22;21004;-73
2023/12/21 13:39:37;;;;;;;6.30;1.80;;;;;;;;;;6389257;22;20010;-73
2023/12/21 13:42:03;;;;;;;3.95;1.10;;;;;;;;;;6373214;22;20005;-73
2023/12/21 13:44:30;;;;;;;4.75;1.65;;;;;;;;;;6383286;22;19994;-73
2023/12/21 13:46:56;;;;;;;8.20;1.80;;;;;;;;;;6386464;22;20018;-73
2023/12/21 13:49:26;;;;;;;7.72;1.95;;;;;;;;;;6386779;22;20042;-73
2023/12/21 13:51:51;;;;;;;5.53;1.77;;;;;;;;;;6359729;22;20020;-74
2023/12/21 13:54:18;;;;;;;9.43;1.92;;;;;;;;;;6391499;22;20005;-74
2023/12/21 13:56:45;;;;;;;11.68;1.90;;;;;;;;;;6398520;22;20004;-74
2023/12/21 13:59:11;;;;;;;11.88;2.05;;;;;;;;;;6383185;22;20025;-74
2023/12/21 14:01:36;;;;;;;11.20;2.13;;;;;;;;;;6387863;22;20013;-74
2023/12/21 14:04:03;;;;;;;7.60;2.58;;;;;;;;;;6358146;22;20009;-74
2023/12/21 14:06:29;;;;;;;4.78;1.35;;;;;;;;;;6383286;22;20029;-74
2023/12/21 14:08:54;;;;;;;9.40;2.15;;;;;;;;;;6357099;22;19994;-74
2023/12/21 14:11:19;;;;;;;9.13;2.03;;;;;;;;;;6358518;22;20456;-74
2023/12/21 14:13:45;;;;;;;8.38;1.67;;;;;;;;;;6371863;22;20014;-74
2023/12/21 14:16:10;;;;;;;10.95;1.77;;;;;;;;;;6356736;22;20060;-74
2023/12/21 14:18:36;;;;;;;7.85;1.77;;;;;;;;;;6343061;22;20022;-73
2023/12/21 14:21:02;;;;;;;5.00;1.60;;;;;;;;;;6385632;22;20452;-74
2023/12/21 14:23:27;;;;;;;7.50;1.77;;;;;;;;;;6387432;22;20108;-73
2023/12/21 14:25:53;;;;;;;9.45;2.33;;;;;;;;;;6386463;22;20014;-74
2023/12/21 14:28:18;;;;;;;5.00;1.30;;;;;;;;;;6385512;22;20042;-76